createdAt,value
2017-11-29T00:00:08.471Z,5.32
2017-11-29T00:02:40.214Z,4.20
2017-11-29T00:05:12.339Z,4.53
2017-11-29T00:07:44.517Z,3.97
2017-11-29T00:10:16.344Z,5.20
2017-11-29T00:12:48.729Z,3.87
2017-11-29T00:15:22.498Z,4.25
2017-11-29T00:17:54.219Z,4.50
2017-11-29T00:20:26.718Z,4.47
2017-11-29T00:22:58.800Z,4.43
2017-11-29T00:25:30.476Z,4.30
2017-11-29T00:28:03.959Z,3.87
2017-11-29T00:30:35.722Z,4.40
2017-11-29T00:33:08.221Z,5.03
2017-11-29T00:35:39.839Z,5.70
2017-11-29T00:38:11.730Z,6.70
2017-11-29T00:40:44.249Z,5.95
2017-11-29T00:43:18.686Z,4.90
2017-11-29T00:45:50.602Z,4.57
2017-11-29T00:48:22.469Z,4.50
2017-11-29T00:50:54.720Z,5.10
2017-11-29T00:53:26.522Z,5.15
2017-11-29T00:55:58.104Z,4.93
2017-11-29T00:58:30.279Z,4.75
2017-11-29T01:01:02.540Z,5.87
2017-11-29T01:03:34.719Z,4.78
2017-11-29T01:06:06.621Z,5.90
2017-11-29T01:08:39.373Z,5.65
2017-11-29T01:11:12.083Z,5.07
2017-11-29T01:13:44.083Z,5.20
2017-11-29T01:16:15.976Z,5.37
2017-11-29T01:18:47.826Z,5.72
2017-11-29T01:21:19.629Z,5.57
2017-11-29T01:23:51.674Z,4.72
2017-11-29T01:26:23.949Z,5.60
2017-11-29T01:28:55.742Z,5.40
2017-11-29T01:31:27.748Z,6.20
2017-11-29T01:33:58.866Z,5.50
2017-11-29T01:36:29.949Z,6.10
2017-11-29T01:39:01.695Z,5.45
2017-11-29T01:41:33.004Z,6.35
2017-11-29T01:44:04.402Z,5.50
2017-11-29T01:46:36.869Z,5.80
2017-11-29T01:49:11.518Z,5.60
2017-11-29T01:51:44.511Z,5.32
2017-11-29T01:54:16.580Z,5.12
2017-11-29T01:56:48.309Z,5.30
2017-11-29T01:59:20.537Z,5.57
2017-11-29T02:01:52.488Z,5.43
2017-11-29T02:04:24.374Z,6.20
2017-11-29T02:06:56.251Z,6.40
2017-11-29T02:09:28.241Z,6.35
2017-11-29T02:11:59.993Z,5.80
2017-11-29T02:14:32.433Z,7.30
2017-11-29T02:17:04.440Z,6.40
2017-11-29T02:19:36.356Z,6.68
2017-11-29T02:22:08.502Z,6.43
2017-11-29T02:24:40.630Z,7.07
2017-11-29T02:27:12.414Z,7.00
2017-11-29T02:29:44.676Z,6.60
2017-11-29T02:32:16.617Z,6.00
2017-11-29T02:34:48.555Z,6.10
2017-11-29T02:37:20.215Z,6.60
2017-11-29T02:40:00.838Z,5.70
2017-11-29T02:42:42.636Z,6.40
2017-11-29T02:45:14.338Z,6.50
2017-11-29T02:47:46.489Z,7.45
2017-11-29T02:50:18.344Z,6.28
2017-11-29T02:52:50.962Z,6.75
2017-11-29T02:55:22.814Z,6.80
2017-11-29T02:57:55.947Z,7.15
2017-11-29T03:00:28.165Z,6.93
2017-11-29T03:02:59.886Z,7.00
2017-11-29T03:05:31.744Z,6.10
2017-11-29T03:08:10.846Z,7.80
2017-11-29T03:10:44.373Z,7.45
2017-11-29T03:13:17.718Z,6.93
2017-11-29T03:15:50.218Z,7.00
2017-11-29T03:18:22.018Z,7.00
2017-11-29T03:20:54.197Z,6.80
2017-11-29T03:23:26.087Z,6.75
2017-11-29T03:25:57.134Z,6.70
2017-11-29T03:28:29.092Z,6.60
2017-11-29T03:31:00.860Z,6.97
2017-11-29T03:33:32.994Z,6.82
2017-11-29T03:36:04.879Z,6.43
2017-11-29T03:38:36.828Z,6.72
2017-11-29T03:41:08.466Z,6.97
2017-11-29T03:43:40.130Z,7.00
2017-11-29T03:46:12.956Z,7.12
2017-11-29T03:48:45.561Z,6.72
2017-11-29T03:51:17.410Z,7.50
2017-11-29T03:53:49.127Z,7.40
2017-11-29T03:56:20.950Z,7.17
2017-11-29T03:58:52.846Z,7.10
2017-11-29T04:01:24.852Z,7.20
2017-11-29T04:04:00.476Z,7.28
2017-11-29T04:06:32.220Z,6.93
2017-11-29T04:09:04.476Z,7.15
2017-11-29T04:11:36.225Z,6.60
2017-11-29T04:14:08.853Z,7.87
2017-11-29T04:16:40.520Z,7.30
2017-11-29T04:19:12.371Z,7.70
2017-11-29T04:21:43.453Z,8.00
2017-11-29T04:24:15.298Z,7.53
2017-11-29T04:26:48.245Z,7.55
2017-11-29T04:29:20.819Z,8.40
2017-11-29T04:31:52.489Z,7.72
2017-11-29T04:34:24.229Z,8.70
2017-11-29T04:36:57.191Z,8.80
2017-11-29T04:39:30.607Z,8.10
2017-11-29T04:42:04.321Z,7.75
2017-11-29T04:44:41.013Z,9.02
2017-11-29T04:47:13.822Z,8.80
2017-11-29T04:49:46.964Z,7.78
2017-11-29T04:52:58.699Z,8.40
2017-11-29T04:55:30.983Z,7.57
2017-11-29T04:58:03.111Z,8.30
2017-11-29T05:00:35.453Z,8.02
2017-11-29T05:03:07.496Z,8.40
2017-11-29T05:05:38.779Z,7.85
2017-11-29T05:08:09.991Z,8.43
2017-11-29T05:10:41.190Z,9.10
2017-11-29T05:13:13.423Z,10.30
2017-11-29T05:15:44.749Z,9.40
2017-11-29T05:18:15.962Z,9.98
2017-11-29T05:20:59.061Z,9.10
2017-11-29T05:23:55.573Z,9.27
2017-11-29T05:26:44.713Z,8.93
2017-11-29T05:29:23.120Z,8.63
2017-11-29T05:32:08.142Z,9.30
2017-11-29T05:34:51.494Z,9.60
2017-11-29T05:37:25.964Z,9.15
2017-11-29T05:39:57.898Z,8.80
2017-11-29T05:42:29.324Z,8.93
2017-11-29T05:45:01.135Z,10.00
2017-11-29T05:47:33.082Z,9.63
2017-11-29T05:50:06.563Z,10.10
2017-11-29T05:52:43.133Z,9.57
2017-11-29T05:55:20.337Z,8.90
2017-11-29T06:00:34.417Z,9.32
2017-11-29T06:03:06.937Z,9.10
2017-11-29T06:05:40.645Z,9.00
2017-11-29T06:08:16.059Z,8.55
2017-11-29T06:10:48.640Z,8.90
2017-11-29T06:13:27.540Z,8.43
2017-11-29T06:16:43.083Z,9.20
2017-11-29T06:19:15.764Z,11.27
2017-11-29T06:21:47.453Z,11.48
2017-11-29T06:24:19.526Z,9.82
2017-11-29T06:26:51.332Z,11.15
2017-11-29T06:29:23.364Z,9.88
2017-11-29T06:32:00.904Z,9.60
2017-11-29T06:34:52.408Z,9.52
2017-11-29T06:37:36.744Z,9.00
2017-11-29T06:40:13.653Z,9.70
2017-11-29T06:42:51.419Z,8.52
2017-11-29T06:45:25.563Z,9.00
2017-11-29T06:48:04.144Z,9.80
2017-11-29T06:51:09.439Z,8.98
2017-11-29T06:54:03.823Z,8.90
2017-11-29T06:56:38.976Z,8.90
2017-11-29T06:59:12.280Z,8.82
2017-11-29T07:04:29.543Z,8.90
2017-11-29T07:07:02.400Z,8.75
2017-11-29T07:09:36.361Z,9.87
2017-11-29T07:12:08.817Z,10.40
2017-11-29T07:14:40.758Z,9.27
2017-11-29T07:17:13.863Z,9.20
2017-11-29T07:19:49.462Z,9.87
2017-11-29T07:22:59.891Z,9.40
2017-11-29T07:25:43.083Z,8.55
2017-11-29T07:28:15.480Z,8.70
2017-11-29T07:30:49.169Z,8.52
2017-11-29T07:33:52.749Z,8.20
2017-11-29T07:36:45.335Z,9.23
2017-11-29T07:39:23.429Z,8.75
2017-11-29T07:41:54.970Z,8.98
2017-11-29T07:47:55.581Z,9.07
2017-11-29T07:50:27.103Z,10.63
2017-11-29T07:53:00.173Z,9.32
2017-11-29T07:55:31.672Z,9.88
2017-11-29T07:58:02.883Z,8.55
2017-11-29T08:00:34.956Z,8.67
2017-11-29T08:03:06.937Z,9.20
2017-11-29T08:05:39.425Z,9.10
2017-11-29T08:08:11.332Z,10.65
2017-11-29T08:10:43.278Z,8.73
2017-11-29T08:13:14.854Z,8.98
2017-11-29T08:15:46.997Z,9.40
2017-11-29T08:18:35.767Z,10.02
2017-11-29T08:21:17.986Z,9.52
2017-11-29T08:24:14.441Z,8.50
2017-11-29T08:26:48.773Z,9.40
2017-11-29T08:29:22.778Z,9.75
2017-11-29T08:31:56.700Z,9.27
2017-11-29T08:34:29.314Z,8.60
2017-11-29T08:37:05.647Z,8.80
2017-11-29T08:39:39.000Z,8.38
2017-11-29T08:42:16.625Z,8.00
2017-11-29T08:44:50.852Z,7.82
2017-11-29T08:50:12.205Z,8.07
2017-11-29T08:52:44.492Z,8.98
2017-11-29T08:55:16.269Z,8.80
2017-11-29T08:57:47.534Z,7.45
2017-11-29T09:00:28.442Z,7.15
2017-11-29T09:03:00.569Z,6.85
2017-11-29T09:05:33.171Z,6.47
2017-11-29T09:08:16.207Z,7.10
2017-11-29T09:11:02.161Z,6.90
2017-11-29T09:13:36.459Z,6.18
2017-11-29T09:28:36.425Z,9.33
2017-11-29T09:31:08.185Z,8.90
2017-11-29T09:33:39.675Z,8.80
2017-11-29T09:36:11.221Z,7.70
2017-11-29T09:38:42.295Z,7.40
2017-11-29T09:41:13.283Z,7.40
2017-11-29T09:43:45.600Z,6.70
2017-11-29T09:46:16.908Z,6.80
2017-11-29T09:48:47.916Z,5.87
2017-11-29T09:52:27.096Z,4.57
2017-11-29T09:55:18.671Z,5.40
2017-11-29T09:57:51.256Z,5.30
2017-11-29T10:00:23.577Z,5.37
2017-11-29T10:02:56.292Z,6.47
2017-11-29T10:05:34.223Z,6.77
2017-11-29T10:08:06.975Z,6.00
2017-11-29T10:10:39.495Z,5.70
2017-11-29T10:13:20.695Z,6.40
2017-11-29T10:15:55.581Z,4.97
2017-11-29T10:18:27.087Z,5.30
2017-11-29T10:20:58.595Z,5.22
2017-11-29T10:23:31.326Z,5.00
2017-11-29T10:26:38.095Z,5.85
2017-11-29T10:32:54.615Z,6.33
2017-11-29T10:35:36.252Z,5.97
2017-11-29T10:38:14.314Z,5.30
2017-11-29T10:40:50.363Z,5.77
2017-11-29T10:43:26.120Z,6.05
2017-11-29T10:46:00.099Z,6.85
2017-11-29T10:48:39.749Z,6.18
2017-11-29T10:51:12.368Z,6.32
2017-11-29T10:53:45.720Z,6.87
2017-11-29T10:56:21.918Z,6.80
2017-11-29T10:58:58.510Z,6.53
2017-11-29T11:01:31.190Z,6.10
2017-11-29T11:04:03.798Z,7.30
2017-11-29T11:06:35.989Z,7.37
2017-11-29T11:20:46.826Z,8.07
2017-11-29T11:23:28.651Z,5.90
2017-11-29T11:28:58.274Z,6.20
2017-11-29T11:31:30.392Z,5.53
2017-11-29T11:34:49.469Z,5.07
2017-11-29T11:37:22.599Z,4.75
2017-11-29T11:39:56.217Z,4.47
2017-11-29T11:42:42.308Z,4.37
2017-11-29T11:45:26.836Z,4.10
2017-11-29T11:55:14.374Z,4.90
2017-11-29T11:57:45.926Z,5.13
2017-11-29T12:00:17.967Z,4.80
2017-11-29T12:02:49.296Z,4.40
2017-11-29T12:05:20.333Z,5.18
2017-11-29T12:07:51.407Z,4.70
2017-11-29T12:10:22.859Z,4.00
2017-11-29T12:12:53.967Z,4.07
2017-11-29T12:15:25.376Z,4.00
2017-11-29T12:17:57.324Z,4.47
2017-11-29T12:20:28.416Z,3.75
2017-11-29T12:23:00.318Z,3.70
2017-11-29T12:25:32.271Z,3.35
2017-11-29T12:28:04.447Z,3.42
2017-11-29T12:30:35.577Z,3.78
2017-11-29T12:33:06.565Z,3.62
2017-11-29T12:35:37.877Z,3.30
2017-11-29T12:38:08.932Z,3.55
2017-11-29T12:40:40.027Z,3.50
2017-11-29T12:43:11.855Z,2.80
2017-11-29T12:45:42.768Z,3.70
2017-11-29T12:48:22.351Z,2.60
2017-11-29T12:51:24.076Z,3.15
2017-11-29T12:53:55.600Z,3.60
2017-11-29T12:56:28.901Z,3.80
2017-11-29T12:58:59.927Z,3.80
2017-11-29T13:01:31.532Z,3.62
2017-11-29T13:04:03.747Z,3.40
2017-11-29T13:06:35.789Z,3.10
2017-11-29T13:09:07.582Z,3.33
2017-11-29T13:11:38.954Z,3.25
2017-11-29T13:14:10.120Z,3.08
2017-11-29T13:16:41.396Z,3.50
2017-11-29T13:19:13.412Z,3.20
2017-11-29T13:21:44.530Z,3.45
2017-11-29T13:24:15.919Z,2.97
2017-11-29T13:26:47.066Z,4.05
2017-11-29T13:29:18.045Z,4.07
2017-11-29T13:31:49.767Z,3.90
2017-11-29T13:34:20.897Z,4.00
2017-11-29T13:36:52.964Z,3.80
2017-11-29T13:39:24.087Z,3.80
2017-11-29T13:41:55.060Z,4.03
2017-11-29T13:44:29.508Z,3.80
2017-11-29T13:47:01.284Z,4.70
2017-11-29T13:49:32.502Z,4.50
2017-11-29T13:52:03.898Z,4.80
2017-11-29T13:54:35.098Z,4.90
2017-11-29T13:57:19.456Z,5.18
2017-11-29T13:59:50.864Z,5.30
2017-11-29T14:02:21.960Z,5.57
2017-11-29T14:04:53.140Z,5.35
2017-11-29T14:07:24.467Z,5.30
2017-11-29T14:09:55.580Z,5.95
2017-11-29T14:12:27.385Z,5.37
2017-11-29T14:14:58.752Z,5.07
2017-11-29T14:17:29.800Z,6.05
2017-11-29T14:20:00.814Z,6.00
2017-11-29T14:22:45.982Z,5.65
2017-11-29T14:25:37.737Z,7.30
2017-11-29T14:31:05.580Z,6.95
2017-11-29T14:33:37.292Z,5.80
2017-11-29T14:36:08.254Z,5.55
2017-11-29T14:38:40.386Z,6.23
2017-11-29T14:41:11.461Z,6.22
2017-11-29T14:43:42.445Z,5.50
2017-11-29T14:46:13.708Z,5.60
2017-11-29T14:48:45.007Z,5.63
2017-11-29T14:51:16.726Z,5.43
2017-11-29T14:53:47.943Z,6.28
2017-11-29T14:56:19.000Z,5.10
2017-11-29T14:58:50.152Z,6.33
2017-11-29T15:01:22.369Z,6.60
2017-11-29T15:03:54.271Z,6.12
2017-11-29T15:06:25.487Z,6.80
2017-11-29T15:08:56.502Z,7.30
2017-11-29T15:11:28.305Z,6.60
2017-11-29T15:14:00.683Z,7.30
2017-11-29T15:16:31.680Z,7.10
2017-11-29T15:19:04.117Z,7.10
2017-11-29T15:21:35.374Z,7.30
2017-11-29T15:24:07.587Z,7.80
2017-11-29T15:26:39.052Z,7.95
2017-11-29T15:29:10.107Z,7.90
2017-11-29T15:31:41.308Z,7.72
2017-11-29T15:34:12.588Z,8.60
2017-11-29T15:36:43.831Z,9.18
2017-11-29T15:39:15.075Z,9.30
2017-11-29T15:41:46.125Z,8.30
2017-11-29T15:44:17.375Z,8.60
2017-11-29T15:46:49.385Z,9.23
2017-11-29T15:49:20.513Z,8.57
2017-11-29T15:51:51.995Z,8.80
2017-11-29T15:54:24.269Z,9.43
2017-11-29T15:56:55.248Z,10.18
2017-11-29T15:59:26.187Z,9.00
2017-11-29T16:01:57.554Z,8.82
2017-11-29T16:04:29.521Z,8.80
2017-11-29T16:07:01.353Z,9.13
2017-11-29T16:09:32.495Z,9.00
2017-11-29T16:12:03.520Z,9.47
2017-11-29T16:14:35.695Z,9.50
2017-11-29T16:17:06.685Z,9.30
2017-11-29T16:19:37.932Z,10.18
2017-11-29T16:22:09.623Z,9.73
2017-11-29T16:24:41.666Z,10.00
2017-11-29T16:27:14.044Z,11.02
2017-11-29T16:29:45.171Z,11.48
2017-11-29T16:32:25.633Z,12.40
2017-11-29T16:34:57.459Z,12.30
2017-11-29T16:37:29.284Z,12.47
2017-11-29T16:40:00.392Z,12.60
2017-11-29T16:42:33.077Z,14.40
2017-11-29T16:45:05.032Z,12.77
2017-11-29T16:47:36.493Z,13.70
2017-11-29T16:50:07.835Z,12.93
2017-11-29T16:52:39.578Z,13.60
2017-11-29T16:55:10.628Z,12.90
2017-11-29T16:57:42.728Z,13.40
2017-11-29T17:00:13.784Z,12.32
2017-11-29T17:02:45.701Z,12.85
2017-11-29T17:05:17.767Z,11.97
2017-11-29T17:07:49.573Z,12.20
2017-11-29T17:10:20.676Z,11.20
2017-11-29T17:12:55.646Z,12.18
2017-11-29T17:15:27.564Z,11.27
2017-11-29T17:17:59.783Z,12.13
2017-11-29T17:20:31.523Z,11.52
2017-11-29T17:23:02.900Z,10.27
2017-11-29T17:25:34.032Z,10.80
2017-11-29T17:28:05.242Z,11.52
2017-11-29T17:30:36.342Z,11.25
2017-11-29T17:33:08.209Z,10.70
2017-11-29T17:35:40.434Z,11.00
2017-11-29T17:38:12.083Z,10.55
2017-11-29T17:40:43.391Z,10.73
2017-11-29T17:43:14.853Z,11.05
2017-11-29T17:45:45.907Z,11.10
2017-11-29T17:48:19.211Z,11.45
2017-11-29T17:50:51.000Z,10.82
2017-11-29T17:53:22.380Z,12.05
2017-11-29T17:55:54.209Z,12.07
2017-11-29T17:58:25.204Z,11.60
2017-11-29T18:00:58.258Z,11.75
2017-11-29T18:03:29.268Z,11.30
2017-11-29T18:06:01.540Z,11.45
2017-11-29T18:08:33.364Z,10.70
2017-11-29T18:11:05.127Z,11.32
2017-11-29T18:13:36.286Z,10.85
2017-11-29T18:16:08.326Z,10.80
2017-11-29T18:18:40.169Z,11.10
2017-11-29T18:21:12.997Z,10.82
2017-11-29T18:23:44.934Z,10.43
2017-11-29T18:26:16.266Z,11.75
2017-11-29T18:28:48.424Z,10.85
2017-11-29T18:31:19.933Z,11.30
2017-11-29T18:33:51.271Z,11.90
2017-11-29T18:36:22.322Z,10.73
2017-11-29T18:38:53.372Z,11.98
2017-11-29T18:41:24.454Z,13.30
2017-11-29T18:43:56.271Z,12.40
2017-11-29T18:46:27.342Z,12.20
2017-11-29T18:48:58.837Z,12.55
2017-11-29T18:51:29.897Z,11.90
2017-11-29T18:54:01.256Z,11.63
2017-11-29T18:56:32.268Z,10.38
2017-11-29T18:59:03.397Z,11.60
2017-11-29T19:01:35.580Z,11.10
2017-11-29T19:04:06.630Z,12.20
2017-11-29T19:06:37.864Z,10.98
2017-11-29T19:09:11.194Z,11.80
2017-11-29T19:11:43.618Z,12.30
2017-11-29T19:14:15.319Z,13.50
2017-11-29T19:16:48.517Z,12.37
2017-11-29T19:19:21.088Z,11.98
2017-11-29T19:21:52.611Z,12.90
2017-11-29T19:24:24.973Z,12.23
2017-11-29T19:26:56.658Z,12.43
2017-11-29T19:29:29.054Z,13.27
2017-11-29T19:32:01.413Z,13.43
2017-11-29T19:35:57.434Z,11.95
2017-11-29T19:38:30.084Z,12.15
2017-11-29T19:41:02.338Z,12.20
2017-11-29T19:43:35.173Z,11.32
2017-11-29T19:46:07.171Z,10.47
2017-11-29T19:48:41.579Z,11.07
2017-11-29T19:51:15.048Z,11.40
2017-11-29T19:53:48.082Z,10.85
2017-11-29T19:56:19.433Z,12.07
2017-11-29T19:58:53.146Z,11.57
2017-11-29T20:01:26.081Z,10.97
2017-11-29T20:03:57.763Z,11.63
2017-11-29T20:06:29.352Z,10.73
2017-11-29T20:09:01.856Z,10.35
2017-11-29T20:11:35.255Z,10.93
2017-11-29T20:14:08.788Z,11.27
2017-11-29T20:16:41.437Z,12.50
2017-11-29T20:19:16.205Z,12.25
2017-11-29T20:21:49.858Z,12.50
2017-11-29T20:24:23.182Z,13.30
2017-11-29T20:26:55.704Z,13.90
2017-11-29T20:29:29.166Z,13.10
2017-11-29T20:32:03.282Z,13.60
2017-11-29T20:34:36.081Z,15.50
2017-11-29T20:37:07.453Z,16.50
2017-11-29T20:39:40.005Z,16.37
2017-11-29T20:42:12.100Z,16.00
2017-11-29T20:44:49.341Z,15.75
2017-11-29T20:47:24.807Z,14.85
2017-11-29T20:49:58.044Z,14.32
2017-11-29T20:52:38.051Z,14.40
2017-11-29T20:55:10.900Z,15.50
2017-11-29T20:57:42.238Z,15.90
2017-11-29T21:00:15.276Z,15.38
2017-11-29T21:02:46.995Z,17.12
2017-11-29T21:05:20.105Z,16.20
2017-11-29T21:07:54.355Z,17.27
2017-11-29T21:10:26.046Z,16.27
2017-11-29T21:12:58.114Z,16.93
2017-11-29T21:15:30.756Z,16.37
2017-11-29T21:18:03.240Z,16.70
2017-11-29T21:20:36.683Z,15.60
2017-11-29T21:23:10.378Z,16.02
2017-11-29T21:25:44.213Z,15.43
2017-11-29T21:28:16.145Z,14.20
2017-11-29T21:30:48.772Z,14.25
2017-11-29T21:33:23.299Z,15.98
2017-11-29T21:35:55.652Z,15.80
2017-11-29T21:38:28.615Z,16.50
2017-11-29T21:41:00.433Z,16.40
2017-11-29T21:43:32.304Z,16.17
2017-11-29T21:46:03.424Z,14.68
2017-11-29T21:48:34.650Z,14.77
2017-11-29T21:51:05.689Z,13.70
2017-11-29T21:53:37.095Z,13.80
2017-11-29T21:56:08.339Z,13.48
2017-11-29T21:58:40.363Z,11.90
2017-11-29T22:01:11.421Z,14.03
2017-11-29T22:03:43.139Z,13.43
2017-11-29T22:06:14.945Z,12.40
2017-11-29T22:08:46.292Z,11.63
2017-11-29T22:11:17.590Z,13.87
2017-11-29T22:13:50.757Z,12.45
2017-11-29T22:16:22.797Z,13.35
2017-11-29T22:18:54.156Z,13.25
2017-11-29T22:21:25.979Z,10.53
2017-11-29T22:23:58.646Z,11.57
2017-11-29T22:26:30.242Z,10.20
2017-11-29T22:29:01.945Z,9.63
2017-11-29T22:31:33.771Z,10.43
2017-11-29T22:34:05.028Z,11.88
2017-11-29T22:36:36.765Z,11.32
2017-11-29T22:39:08.787Z,9.60
2017-11-29T22:41:41.177Z,9.30
2017-11-29T22:44:13.357Z,8.02
2017-11-29T22:46:45.120Z,7.50
2017-11-29T22:49:17.592Z,7.12
2017-11-29T22:51:48.477Z,7.30
2017-11-29T22:54:20.868Z,6.20
2017-11-29T22:56:53.102Z,6.00
2017-11-29T22:59:24.929Z,6.40
2017-11-29T23:01:56.811Z,6.18
2017-11-29T23:04:29.783Z,6.95
2017-11-29T23:07:01.620Z,6.60
2017-11-29T23:09:33.230Z,6.93
2017-11-29T23:12:04.253Z,6.68
2017-11-29T23:14:35.265Z,6.73
2017-11-29T23:17:06.266Z,7.30
2017-11-29T23:19:37.769Z,7.32
2017-11-29T23:22:09.842Z,6.00
2017-11-29T23:24:41.682Z,6.40
2017-11-29T23:27:13.710Z,5.93
2017-11-29T23:29:45.320Z,5.80
2017-11-29T23:32:17.418Z,6.55
2017-11-29T23:34:49.180Z,6.80
2017-11-29T23:37:21.528Z,5.93
2017-11-29T23:39:53.365Z,5.75
2017-11-29T23:42:24.324Z,5.80
2017-11-29T23:44:55.576Z,5.60
2017-11-29T23:47:26.613Z,5.40
2017-11-29T23:49:57.648Z,5.50
2017-11-29T23:52:29.237Z,5.30
2017-11-29T23:55:00.870Z,4.80
2017-11-29T23:57:32.899Z,5.10
